sensor_id;sensor_type;location;lat;lon;timestamp;temperature;humidity
42905;DHT22;28550;51.228;4.528;2023-03-20T00:02:02;6.10;99.90
42905;DHT22;28550;51.228;4.528;2023-03-20T00:04:27;6.10;99.90
42905;DHT22;28550;51.228;4.528;2023-03-20T00:06:53;6.00;99.90
42905;DHT22;28550;51.228;4.528;2023-03-20T00:09:19;5.90;99.90
42905;DHT22;28550;51.228;4.528;2023-03-20T00:11:53;5.80;99.90
42905;DHT22;28550;51.228;4.528;2023-03-20T00:14:22;5.80;99.90
42905;DHT22;28550;51.228;4.528;2023-03-20T00:17:07;5.90;99.90
42905;DHT22;28550;51.228;4.528;2023-03-20T00:19:34;5.80;99.90
42905;DHT22;28550;51.228;4.528;2023-03-20T00:21:59;5.80;99.90
42905;DHT22;28550;51.228;4.528;2023-03-20T00:24:25;5.80;99.90
42905;DHT22;28550;51.228;4.528;2023-03-20T00:26:51;5.90;99.90
42905;DHT22;28550;51.228;4.528;2023-03-20T00:29:20;5.80;99.90
42905;DHT22;28550;51.228;4.528;2023-03-20T00:31:46;5.80;99.90
42905;DHT22;28550;51.228;4.528;2023-03-20T00:34:22;5.80;99.90
42905;DHT22;28550;51.228;4.528;2023-03-20T00:36:48;5.80;99.90
42905;DHT22;28550;51.228;4.528;2023-03-20T00:39:13;5.80;99.90
42905;DHT22;28550;51.228;4.528;2023-03-20T00:41:50;5.80;99.90
42905;DHT22;28550;51.228;4.528;2023-03-20T00:46:41;5.80;99.90
42905;DHT22;28550;51.228;4.528;2023-03-20T00:49:11;5.80;99.90
42905;DHT22;28550;51.228;4.528;2023-03-20T00:51:36;5.80;99.90
42905;DHT22;28550;51.228;4.528;2023-03-20T00:54:12;5.80;99.90
42905;DHT22;28550;51.228;4.528;2023-03-20T00:56:39;5.70;99.90
42905;DHT22;28550;51.228;4.528;2023-03-20T00:59:05;5.70;99.90
42905;DHT22;28550;51.228;4.528;2023-03-20T01:01:31;5.60;99.90
42905;DHT22;28550;51.228;4.528;2023-03-20T01:03:58;5.70;99.90
42905;DHT22;28550;51.228;4.528;2023-03-20T01:06:23;5.60;99.90
42905;DHT22;28550;51.228;4.528;2023-03-20T01:08:49;5.70;99.90
42905;DHT22;28550;51.228;4.528;2023-03-20T01:11:15;5.60;99.90
42905;DHT22;28550;51.228;4.528;2023-03-20T01:13:43;5.60;99.90
42905;DHT22;28550;51.228;4.528;2023-03-20T01:16:17;5.60;99.90
42905;DHT22;28550;51.228;4.528;2023-03-20T01:18:44;5.60;99.90
42905;DHT22;28550;51.228;4.528;2023-03-20T01:21:09;5.60;99.90
42905;DHT22;28550;51.228;4.528;2023-03-20T01:26:37;5.70;99.90
42905;DHT22;28550;51.228;4.528;2023-03-20T01:29:03;5.70;99.90
42905;DHT22;28550;51.228;4.528;2023-03-20T01:31:29;5.80;99.90
42905;DHT22;28550;51.228;4.528;2023-03-20T01:33:55;5.70;99.90
42905;DHT22;28550;51.228;4.528;2023-03-20T01:36:21;5.90;99.90
42905;DHT22;28550;51.228;4.528;2023-03-20T01:38:56;5.80;99.90
42905;DHT22;28550;51.228;4.528;2023-03-20T01:41:24;5.80;99.90
42905;DHT22;28550;51.228;4.528;2023-03-20T01:43:50;5.70;99.90
42905;DHT22;28550;51.228;4.528;2023-03-20T01:46:17;5.80;99.90
42905;DHT22;28550;51.228;4.528;2023-03-20T01:51:15;6.00;99.90
42905;DHT22;28550;51.228;4.528;2023-03-20T01:53:41;6.10;99.90
42905;DHT22;28550;51.228;4.528;2023-03-20T01:56:07;6.20;99.90
42905;DHT22;28550;51.228;4.528;2023-03-20T01:58:34;6.20;99.90
42905;DHT22;28550;51.228;4.528;2023-03-20T02:01:02;6.20;99.90
42905;DHT22;28550;51.228;4.528;2023-03-20T02:03:28;6.20;99.90
42905;DHT22;28550;51.228;4.528;2023-03-20T02:05:54;6.20;99.90
42905;DHT22;28550;51.228;4.528;2023-03-20T02:08:22;6.20;99.90
42905;DHT22;28550;51.228;4.528;2023-03-20T02:10:49;6.10;99.90
42905;DHT22;28550;51.228;4.528;2023-03-20T02:13:14;6.10;99.90
42905;DHT22;28550;51.228;4.528;2023-03-20T02:15:52;6.10;99.90
42905;DHT22;28550;51.228;4.528;2023-03-20T02:18:22;6.10;99.90
42905;DHT22;28550;51.228;4.528;2023-03-20T02:33:59;6.50;99.90
42905;DHT22;28550;51.228;4.528;2023-03-20T02:37:33;6.50;99.90
42905;DHT22;28550;51.228;4.528;2023-03-20T02:47:22;6.30;99.90
42905;DHT22;28550;51.228;4.528;2023-03-20T02:55:27;6.40;99.90
42905;DHT22;28550;51.228;4.528;2023-03-20T02:58:02;6.50;99.90
42905;DHT22;28550;51.228;4.528;2023-03-20T03:03:11;6.40;99.90
42905;DHT22;28550;51.228;4.528;2023-03-20T03:05:39;6.50;99.90
42905;DHT22;28550;51.228;4.528;2023-03-20T03:08:08;6.50;99.90
42905;DHT22;28550;51.228;4.528;2023-03-20T03:10:37;6.60;99.90
42905;DHT22;28550;51.228;4.528;2023-03-20T03:13:04;6.70;99.90
42905;DHT22;28550;51.228;4.528;2023-03-20T03:15:33;6.60;99.90
42905;DHT22;28550;51.228;4.528;2023-03-20T03:18:00;6.70;99.90
42905;DHT22;28550;51.228;4.528;2023-03-20T03:20:34;6.80;99.90
42905;DHT22;28550;51.228;4.528;2023-03-20T03:23:01;6.70;99.90
42905;DHT22;28550;51.228;4.528;2023-03-20T03:25:28;6.70;99.90
42905;DHT22;28550;51.228;4.528;2023-03-20T03:28:01;6.70;99.90
42905;DHT22;28550;51.228;4.528;2023-03-20T03:30:27;6.70;99.90
42905;DHT22;28550;51.228;4.528;2023-03-20T03:35:37;6.80;99.90
42905;DHT22;28550;51.228;4.528;2023-03-20T03:40:49;6.60;99.90
42905;DHT22;28550;51.228;4.528;2023-03-20T03:43:20;6.50;99.90
42905;DHT22;28550;51.228;4.528;2023-03-20T03:45:48;6.60;99.90
42905;DHT22;28550;51.228;4.528;2023-03-20T03:48:17;6.60;99.90
42905;DHT22;28550;51.228;4.528;2023-03-20T03:50:44;6.70;99.90
42905;DHT22;28550;51.228;4.528;2023-03-20T03:53:13;6.70;99.90
42905;DHT22;28550;51.228;4.528;2023-03-20T03:55:43;6.70;99.90
42905;DHT22;28550;51.228;4.528;2023-03-20T03:58:24;6.80;99.90
42905;DHT22;28550;51.228;4.528;2023-03-20T04:00:51;6.70;99.90
42905;DHT22;28550;51.228;4.528;2023-03-20T04:03:19;6.80;99.90
42905;DHT22;28550;51.228;4.528;2023-03-20T04:05:45;6.70;99.90
42905;DHT22;28550;51.228;4.528;2023-03-20T04:08:11;6.80;99.90
42905;DHT22;28550;51.228;4.528;2023-03-20T04:10:38;6.70;99.90
42905;DHT22;28550;51.228;4.528;2023-03-20T04:13:03;6.80;99.90
42905;DHT22;28550;51.228;4.528;2023-03-20T04:15:29;6.70;99.90
42905;DHT22;28550;51.228;4.528;2023-03-20T04:17:55;6.70;99.90
42905;DHT22;28550;51.228;4.528;2023-03-20T04:20:20;6.80;99.90
42905;DHT22;28550;51.228;4.528;2023-03-20T04:22:46;6.70;99.90
42905;DHT22;28550;51.228;4.528;2023-03-20T04:25:16;6.80;99.90
42905;DHT22;28550;51.228;4.528;2023-03-20T04:27:42;6.90;99.90
42905;DHT22;28550;51.228;4.528;2023-03-20T04:30:08;6.90;99.90
42905;DHT22;28550;51.228;4.528;2023-03-20T04:32:33;6.90;99.90
42905;DHT22;28550;51.228;4.528;2023-03-20T04:34:59;7.00;99.80
42905;DHT22;28550;51.228;4.528;2023-03-20T04:37:24;6.90;99.00
42905;DHT22;28550;51.228;4.528;2023-03-20T04:39:50;6.90;99.90
42905;DHT22;28550;51.228;4.528;2023-03-20T04:42:16;7.00;98.50
42905;DHT22;28550;51.228;4.528;2023-03-20T04:44:42;6.90;98.60
42905;DHT22;28550;51.228;4.528;2023-03-20T04:47:08;6.90;99.50
42905;DHT22;28550;51.228;4.528;2023-03-20T04:49:33;6.90;98.50
42905;DHT22;28550;51.228;4.528;2023-03-20T04:51:59;6.80;98.30
42905;DHT22;28550;51.228;4.528;2023-03-20T04:54:25;6.80;99.90
42905;DHT22;28550;51.228;4.528;2023-03-20T04:56:51;6.80;99.90
42905;DHT22;28550;51.228;4.528;2023-03-20T04:59:16;6.70;99.90
42905;DHT22;28550;51.228;4.528;2023-03-20T05:01:42;6.80;99.90
42905;DHT22;28550;51.228;4.528;2023-03-20T05:04:07;6.80;99.90
42905;DHT22;28550;51.228;4.528;2023-03-20T05:06:33;6.90;99.90
42905;DHT22;28550;51.228;4.528;2023-03-20T05:08:59;7.00;99.00
42905;DHT22;28550;51.228;4.528;2023-03-20T05:11:25;6.90;99.90
42905;DHT22;28550;51.228;4.528;2023-03-20T05:13:52;7.00;99.00
42905;DHT22;28550;51.228;4.528;2023-03-20T05:16:20;6.90;98.20
42905;DHT22;28550;51.228;4.528;2023-03-20T05:18:46;7.00;97.70
42905;DHT22;28550;51.228;4.528;2023-03-20T05:21:11;6.90;98.20
42905;DHT22;28550;51.228;4.528;2023-03-20T05:23:37;6.90;99.00
42905;DHT22;28550;51.228;4.528;2023-03-20T05:26:03;7.10;98.50
42905;DHT22;28550;51.228;4.528;2023-03-20T05:28:28;7.10;96.50
42905;DHT22;28550;51.228;4.528;2023-03-20T05:30:54;7.00;97.20
42905;DHT22;28550;51.228;4.528;2023-03-20T05:33:19;7.10;98.10
42905;DHT22;28550;51.228;4.528;2023-03-20T05:35:45;7.20;96.80
42905;DHT22;28550;51.228;4.528;2023-03-20T05:38:11;7.20;95.00
42905;DHT22;28550;51.228;4.528;2023-03-20T05:40:36;7.10;96.00
42905;DHT22;28550;51.228;4.528;2023-03-20T05:43:02;7.00;97.30
42905;DHT22;28550;51.228;4.528;2023-03-20T05:45:27;7.20;96.00
42905;DHT22;28550;51.228;4.528;2023-03-20T05:47:53;7.20;94.60
42905;DHT22;28550;51.228;4.528;2023-03-20T05:50:18;7.20;94.70
42905;DHT22;28550;51.228;4.528;2023-03-20T05:52:47;7.10;96.00
42905;DHT22;28550;51.228;4.528;2023-03-20T05:55:13;7.20;95.90
42905;DHT22;28550;51.228;4.528;2023-03-20T05:57:39;7.20;93.70
42905;DHT22;28550;51.228;4.528;2023-03-20T06:00:05;7.30;93.20
42905;DHT22;28550;51.228;4.528;2023-03-20T06:02:31;7.20;92.80
42905;DHT22;28550;51.228;4.528;2023-03-20T06:04:56;7.20;93.50
42905;DHT22;28550;51.228;4.528;2023-03-20T06:07:22;7.20;93.20
42905;DHT22;28550;51.228;4.528;2023-03-20T06:09:47;7.30;93.40
42905;DHT22;28550;51.228;4.528;2023-03-20T06:12:13;7.30;93.60
42905;DHT22;28550;51.228;4.528;2023-03-20T06:14:38;7.30;93.50
42905;DHT22;28550;51.228;4.528;2023-03-20T06:17:04;7.30;92.20
42905;DHT22;28550;51.228;4.528;2023-03-20T06:19:30;7.40;91.20
42905;DHT22;28550;51.228;4.528;2023-03-20T06:21:55;7.40;91.60
42905;DHT22;28550;51.228;4.528;2023-03-20T06:24:21;7.50;89.10
42905;DHT22;28550;51.228;4.528;2023-03-20T06:26:46;7.60;88.30
42905;DHT22;28550;51.228;4.528;2023-03-20T06:29:12;7.60;82.30
42905;DHT22;28550;51.228;4.528;2023-03-20T06:31:38;7.60;83.60
42905;DHT22;28550;51.228;4.528;2023-03-20T06:34:04;7.50;90.00
42905;DHT22;28550;51.228;4.528;2023-03-20T06:36:30;7.60;89.70
42905;DHT22;28550;51.228;4.528;2023-03-20T06:38:56;7.70;85.50
42905;DHT22;28550;51.228;4.528;2023-03-20T06:41:22;7.70;84.00
42905;DHT22;28550;51.228;4.528;2023-03-20T06:43:47;7.70;83.00
42905;DHT22;28550;51.228;4.528;2023-03-20T06:46:13;7.70;83.80
42905;DHT22;28550;51.228;4.528;2023-03-20T06:48:38;7.70;84.00
42905;DHT22;28550;51.228;4.528;2023-03-20T06:51:04;7.70;83.70
42905;DHT22;28550;51.228;4.528;2023-03-20T06:53:31;7.80;87.20
42905;DHT22;28550;51.228;4.528;2023-03-20T06:55:57;7.90;86.70
42905;DHT22;28550;51.228;4.528;2023-03-20T06:58:22;8.00;77.50
42905;DHT22;28550;51.228;4.528;2023-03-20T07:00:48;8.00;77.10
42905;DHT22;28550;51.228;4.528;2023-03-20T07:03:13;8.10;70.00
42905;DHT22;28550;51.228;4.528;2023-03-20T07:05:39;8.10;68.60
42905;DHT22;28550;51.228;4.528;2023-03-20T07:08:06;8.10;66.90
42905;DHT22;28550;51.228;4.528;2023-03-20T07:10:32;8.10;67.10
42905;DHT22;28550;51.228;4.528;2023-03-20T07:12:58;8.10;69.10
42905;DHT22;28550;51.228;4.528;2023-03-20T07:15:24;8.00;72.00
42905;DHT22;28550;51.228;4.528;2023-03-20T07:17:50;8.10;66.90
42905;DHT22;28550;51.228;4.528;2023-03-20T07:20:15;8.20;66.40
42905;DHT22;28550;51.228;4.528;2023-03-20T07:22:41;8.20;64.70
42905;DHT22;28550;51.228;4.528;2023-03-20T07:25:07;8.20;68.30
42905;DHT22;28550;51.228;4.528;2023-03-20T07:27:33;8.30;63.20
42905;DHT22;28550;51.228;4.528;2023-03-20T07:29:59;8.40;61.80
42905;DHT22;28550;51.228;4.528;2023-03-20T07:32:24;8.40;61.30
42905;DHT22;28550;51.228;4.528;2023-03-20T07:34:50;8.40;64.30
42905;DHT22;28550;51.228;4.528;2023-03-20T07:37:16;8.30;60.30
42905;DHT22;28550;51.228;4.528;2023-03-20T07:39:42;8.50;61.90
42905;DHT22;28550;51.228;4.528;2023-03-20T07:42:08;8.70;56.40
42905;DHT22;28550;51.228;4.528;2023-03-20T07:44:33;8.80;50.50
42905;DHT22;28550;51.228;4.528;2023-03-20T07:46:59;8.90;42.50
42905;DHT22;28550;51.228;4.528;2023-03-20T07:49:25;8.90;37.80
42905;DHT22;28550;51.228;4.528;2023-03-20T07:51:51;9.00;32.80
42905;DHT22;28550;51.228;4.528;2023-03-20T07:54:18;9.10;36.40
42905;DHT22;28550;51.228;4.528;2023-03-20T07:56:44;9.10;24.60
42905;DHT22;28550;51.228;4.528;2023-03-20T07:59:10;9.00;25.10
42905;DHT22;28550;51.228;4.528;2023-03-20T08:01:38;9.00;28.30
42905;DHT22;28550;51.228;4.528;2023-03-20T08:04:04;9.00;23.70
42905;DHT22;28550;51.228;4.528;2023-03-20T08:06:30;8.90;24.60
42905;DHT22;28550;51.228;4.528;2023-03-20T08:08:55;9.00;26.20
42905;DHT22;28550;51.228;4.528;2023-03-20T08:11:21;9.00;35.70
42905;DHT22;28550;51.228;4.528;2023-03-20T08:13:46;9.00;32.50
42905;DHT22;28550;51.228;4.528;2023-03-20T08:16:12;8.90;40.40
42905;DHT22;28550;51.228;4.528;2023-03-20T08:18:37;8.90;31.70
42905;DHT22;28550;51.228;4.528;2023-03-20T08:21:03;8.80;34.50
42905;DHT22;28550;51.228;4.528;2023-03-20T08:23:29;8.70;49.40
42905;DHT22;28550;51.228;4.528;2023-03-20T08:25:54;8.70;55.10
42905;DHT22;28550;51.228;4.528;2023-03-20T08:28:20;8.70;57.20
42905;DHT22;28550;51.228;4.528;2023-03-20T08:30:46;8.70;62.30
42905;DHT22;28550;51.228;4.528;2023-03-20T08:33:12;8.70;67.80
42905;DHT22;28550;51.228;4.528;2023-03-20T08:35:38;8.80;67.70
42905;DHT22;28550;51.228;4.528;2023-03-20T08:38:03;8.80;74.10
42905;DHT22;28550;51.228;4.528;2023-03-20T08:40:29;8.70;64.20
42905;DHT22;28550;51.228;4.528;2023-03-20T08:42:55;8.60;70.40
42905;DHT22;28550;51.228;4.528;2023-03-20T08:45:21;8.70;83.90
42905;DHT22;28550;51.228;4.528;2023-03-20T08:47:50;8.70;82.50
42905;DHT22;28550;51.228;4.528;2023-03-20T08:50:16;8.70;76.00
42905;DHT22;28550;51.228;4.528;2023-03-20T08:52:41;8.60;80.80
42905;DHT22;28550;51.228;4.528;2023-03-20T08:55:09;8.60;75.70
42905;DHT22;28550;51.228;4.528;2023-03-20T08:57:34;8.50;86.90
42905;DHT22;28550;51.228;4.528;2023-03-20T09:00:00;8.50;81.80
42905;DHT22;28550;51.228;4.528;2023-03-20T09:02:25;8.50;84.00
42905;DHT22;28550;51.228;4.528;2023-03-20T09:04:51;8.50;87.70
42905;DHT22;28550;51.228;4.528;2023-03-20T09:07:16;8.50;90.60
42905;DHT22;28550;51.228;4.528;2023-03-20T09:09:42;8.50;90.00
42905;DHT22;28550;51.228;4.528;2023-03-20T09:12:07;8.50;83.70
42905;DHT22;28550;51.228;4.528;2023-03-20T09:14:33;8.60;86.10
42905;DHT22;28550;51.228;4.528;2023-03-20T09:16:58;8.80;73.90
42905;DHT22;28550;51.228;4.528;2023-03-20T09:19:24;8.90;77.00
42905;DHT22;28550;51.228;4.528;2023-03-20T09:21:49;9.00;72.80
42905;DHT22;28550;51.228;4.528;2023-03-20T09:24:15;9.00;76.70
42905;DHT22;28550;51.228;4.528;2023-03-20T09:26:40;9.10;73.90
42905;DHT22;28550;51.228;4.528;2023-03-20T09:29:06;9.40;64.60
42905;DHT22;28550;51.228;4.528;2023-03-20T09:31:32;9.60;62.30
42905;DHT22;28550;51.228;4.528;2023-03-20T09:33:58;9.70;49.00
42905;DHT22;28550;51.228;4.528;2023-03-20T09:36:24;9.90;51.10
42905;DHT22;28550;51.228;4.528;2023-03-20T09:38:49;10.00;26.70
42905;DHT22;28550;51.228;4.528;2023-03-20T09:41:22;10.20;1.00
42905;DHT22;28550;51.228;4.528;2023-03-20T09:54:33;10.30;1.00
42905;DHT22;28550;51.228;4.528;2023-03-20T09:59:58;10.60;1.00
42905;DHT22;28550;51.228;4.528;2023-03-20T10:02:33;10.70;1.00
42905;DHT22;28550;51.228;4.528;2023-03-20T10:05:03;10.70;1.00
42905;DHT22;28550;51.228;4.528;2023-03-20T10:07:35;10.70;1.00
42905;DHT22;28550;51.228;4.528;2023-03-20T10:10:03;10.70;1.00
42905;DHT22;28550;51.228;4.528;2023-03-20T10:20:24;10.60;1.00
42905;DHT22;28550;51.228;4.528;2023-03-20T10:22:52;10.50;1.00
42905;DHT22;28550;51.228;4.528;2023-03-20T10:27:48;10.80;1.00
42905;DHT22;28550;51.228;4.528;2023-03-20T10:32:48;10.90;99.90
42905;DHT22;28550;51.228;4.528;2023-03-20T10:35:24;11.00;1.00
42905;DHT22;28550;51.228;4.528;2023-03-20T10:37:59;11.20;99.90
42905;DHT22;28550;51.228;4.528;2023-03-20T10:40:31;11.30;99.90
42905;DHT22;28550;51.228;4.528;2023-03-20T10:42:59;11.40;95.70
42905;DHT22;28550;51.228;4.528;2023-03-20T10:45:30;11.20;1.00
42905;DHT22;28550;51.228;4.528;2023-03-20T10:47:57;11.00;21.60
42905;DHT22;28550;51.228;4.528;2023-03-20T10:50:31;10.80;1.00
42905;DHT22;28550;51.228;4.528;2023-03-20T10:52:57;10.50;1.00
42905;DHT22;28550;51.228;4.528;2023-03-20T10:55:25;10.20;1.00
42905;DHT22;28550;51.228;4.528;2023-03-20T10:57:59;10.20;17.80
42905;DHT22;28550;51.228;4.528;2023-03-20T11:00:26;10.20;8.80
42905;DHT22;28550;51.228;4.528;2023-03-20T11:02:52;10.30;12.10
42905;DHT22;28550;51.228;4.528;2023-03-20T11:08:00;10.80;1.00
42905;DHT22;28550;51.228;4.528;2023-03-20T11:10:26;10.90;1.00
42905;DHT22;28550;51.228;4.528;2023-03-20T11:12:52;10.90;1.00
42905;DHT22;28550;51.228;4.528;2023-03-20T11:15:31;10.90;1.00
42905;DHT22;28550;51.228;4.528;2023-03-20T11:17:58;10.80;1.00
42905;DHT22;28550;51.228;4.528;2023-03-20T11:20:31;10.80;1.00
42905;DHT22;28550;51.228;4.528;2023-03-20T11:23:00;10.80;1.00
42905;DHT22;28550;51.228;4.528;2023-03-20T11:25:34;10.70;1.00
42905;DHT22;28550;51.228;4.528;2023-03-20T11:30:45;11.10;1.00
42905;DHT22;28550;51.228;4.528;2023-03-20T11:33:11;11.40;99.90
42905;DHT22;28550;51.228;4.528;2023-03-20T11:35:37;11.60;1.00
42905;DHT22;28550;51.228;4.528;2023-03-20T11:38:08;11.90;1.00
42905;DHT22;28550;51.228;4.528;2023-03-20T11:40:37;12.30;99.90
42905;DHT22;28550;51.228;4.528;2023-03-20T11:43:07;12.50;99.90
42905;DHT22;28550;51.228;4.528;2023-03-20T11:45:35;12.50;99.90
42905;DHT22;28550;51.228;4.528;2023-03-20T11:48:01;12.40;99.90
42905;DHT22;28550;51.228;4.528;2023-03-20T11:50:35;12.20;21.40
42905;DHT22;28550;51.228;4.528;2023-03-20T11:53:01;12.30;1.00
42905;DHT22;28550;51.228;4.528;2023-03-20T11:55:28;12.20;1.00
42905;DHT22;28550;51.228;4.528;2023-03-20T11:57:59;12.40;1.00
42905;DHT22;28550;51.228;4.528;2023-03-20T12:00:25;12.70;99.90
42905;DHT22;28550;51.228;4.528;2023-03-20T12:02:53;12.80;99.90
42905;DHT22;28550;51.228;4.528;2023-03-20T12:05:32;12.90;99.90
42905;DHT22;28550;51.228;4.528;2023-03-20T12:10:43;13.00;99.90
42905;DHT22;28550;51.228;4.528;2023-03-20T12:13:21;13.10;1.00
42905;DHT22;28550;51.228;4.528;2023-03-20T12:15:49;13.20;99.90
42905;DHT22;28550;51.228;4.528;2023-03-20T12:18:23;13.10;99.90
42905;DHT22;28550;51.228;4.528;2023-03-20T12:21:06;13.10;42.70
42905;DHT22;28550;51.228;4.528;2023-03-20T12:26:12;13.00;99.90
42905;DHT22;28550;51.228;4.528;2023-03-20T12:28:59;13.00;77.90
42905;DHT22;28550;51.228;4.528;2023-03-20T12:36:35;13.50;1.00
42905;DHT22;28550;51.228;4.528;2023-03-20T12:39:02;13.30;99.90
42905;DHT22;28550;51.228;4.528;2023-03-20T12:41:29;13.30;1.00
42905;DHT22;28550;51.228;4.528;2023-03-20T12:44:05;13.10;1.00
42905;DHT22;28550;51.228;4.528;2023-03-20T12:52:08;12.60;99.90
42905;DHT22;28550;51.228;4.528;2023-03-20T12:54:38;12.60;99.90
42905;DHT22;28550;51.228;4.528;2023-03-20T12:57:11;12.40;99.90
42905;DHT22;28550;51.228;4.528;2023-03-20T13:12:45;11.90;99.90
42905;DHT22;28550;51.228;4.528;2023-03-20T13:15:28;11.90;99.90
42905;DHT22;28550;51.228;4.528;2023-03-20T13:18:14;11.90;99.90
42905;DHT22;28550;51.228;4.528;2023-03-20T13:20:44;12.00;1.00
42905;DHT22;28550;51.228;4.528;2023-03-20T13:23:24;12.10;99.90
42905;DHT22;28550;51.228;4.528;2023-03-20T13:38:44;11.80;99.90
42905;DHT22;28550;51.228;4.528;2023-03-20T13:41:11;11.80;99.90
42905;DHT22;28550;51.228;4.528;2023-03-20T13:43:59;11.90;99.90
42905;DHT22;28550;51.228;4.528;2023-03-20T13:46:25;11.90;99.90
42905;DHT22;28550;51.228;4.528;2023-03-20T13:48:53;12.00;99.90
42905;DHT22;28550;51.228;4.528;2023-03-20T13:56:37;12.10;99.90
42905;DHT22;28550;51.228;4.528;2023-03-20T14:03:56;12.20;99.90
42905;DHT22;28550;51.228;4.528;2023-03-20T14:08:54;12.40;1.00
42905;DHT22;28550;51.228;4.528;2023-03-20T14:13:46;12.30;99.90
42905;DHT22;28550;51.228;4.528;2023-03-20T14:16:14;12.30;99.90
42905;DHT22;28550;51.228;4.528;2023-03-20T14:18:41;12.10;99.90
42905;DHT22;28550;51.228;4.528;2023-03-20T14:21:10;12.20;99.90
42905;DHT22;28550;51.228;4.528;2023-03-20T14:23:59;12.10;1.00
42905;DHT22;28550;51.228;4.528;2023-03-20T14:26:26;12.20;1.00
42905;DHT22;28550;51.228;4.528;2023-03-20T14:31:22;12.00;1.00
42905;DHT22;28550;51.228;4.528;2023-03-20T14:33:52;11.90;1.00
42905;DHT22;28550;51.228;4.528;2023-03-20T14:36:21;11.80;1.00
42905;DHT22;28550;51.228;4.528;2023-03-20T14:39:01;11.70;1.00
42905;DHT22;28550;51.228;4.528;2023-03-20T14:41:54;11.70;1.00
42905;DHT22;28550;51.228;4.528;2023-03-20T14:52:08;11.80;1.00
42905;DHT22;28550;51.228;4.528;2023-03-20T14:54:38;11.70;1.00
42905;DHT22;28550;51.228;4.528;2023-03-20T14:57:17;11.70;1.00
42905;DHT22;28550;51.228;4.528;2023-03-20T14:59:47;11.80;1.00
42905;DHT22;28550;51.228;4.528;2023-03-20T15:02:22;11.80;1.00
42905;DHT22;28550;51.228;4.528;2023-03-20T15:04:49;11.60;1.00
42905;DHT22;28550;51.228;4.528;2023-03-20T15:07:16;11.60;2.10
42905;DHT22;28550;51.228;4.528;2023-03-20T15:09:44;11.50;19.80
42905;DHT22;28550;51.228;4.528;2023-03-20T15:12:14;11.40;34.30
42905;DHT22;28550;51.228;4.528;2023-03-20T15:14:55;11.30;43.70
42905;DHT22;28550;51.228;4.528;2023-03-20T15:17:21;11.40;35.80
42905;DHT22;28550;51.228;4.528;2023-03-20T15:19:47;11.40;49.80
42905;DHT22;28550;51.228;4.528;2023-03-20T15:22:14;11.40;50.40
42905;DHT22;28550;51.228;4.528;2023-03-20T15:24:42;11.40;50.90
42905;DHT22;28550;51.228;4.528;2023-03-20T15:27:18;11.30;58.50
42905;DHT22;28550;51.228;4.528;2023-03-20T15:29:49;11.30;57.00
42905;DHT22;28550;51.228;4.528;2023-03-20T15:32:15;11.30;46.50
42905;DHT22;28550;51.228;4.528;2023-03-20T15:34:41;11.30;56.00
42905;DHT22;28550;51.228;4.528;2023-03-20T15:37:08;11.30;55.50
42905;DHT22;28550;51.228;4.528;2023-03-20T15:39:45;11.30;41.20
42905;DHT22;28550;51.228;4.528;2023-03-20T15:42:12;11.30;46.40
42905;DHT22;28550;51.228;4.528;2023-03-20T15:44:40;11.30;42.70
42905;DHT22;28550;51.228;4.528;2023-03-20T15:49:35;11.40;43.60
42905;DHT22;28550;51.228;4.528;2023-03-20T15:52:02;11.40;45.50
42905;DHT22;28550;51.228;4.528;2023-03-20T15:54:29;11.50;50.90
42905;DHT22;28550;51.228;4.528;2023-03-20T15:56:56;11.50;43.40
42905;DHT22;28550;51.228;4.528;2023-03-20T15:59:25;11.60;28.40
42905;DHT22;28550;51.228;4.528;2023-03-20T16:01:52;11.70;16.60
42905;DHT22;28550;51.228;4.528;2023-03-20T16:04:19;11.80;13.10
42905;DHT22;28550;51.228;4.528;2023-03-20T16:06:52;11.90;1.00
42905;DHT22;28550;51.228;4.528;2023-03-20T16:09:21;12.00;6.80
42905;DHT22;28550;51.228;4.528;2023-03-20T16:11:53;12.00;1.00
42905;DHT22;28550;51.228;4.528;2023-03-20T16:14:20;12.10;1.00
42905;DHT22;28550;51.228;4.528;2023-03-20T16:16:47;12.10;1.00
42905;DHT22;28550;51.228;4.528;2023-03-20T16:19:13;12.20;1.00
42905;DHT22;28550;51.228;4.528;2023-03-20T16:21:40;12.20;1.00
42905;DHT22;28550;51.228;4.528;2023-03-20T16:24:08;12.30;1.00
42905;DHT22;28550;51.228;4.528;2023-03-20T16:26:36;12.20;1.00
42905;DHT22;28550;51.228;4.528;2023-03-20T16:29:02;12.10;1.00
42905;DHT22;28550;51.228;4.528;2023-03-20T16:31:33;12.10;1.00
42905;DHT22;28550;51.228;4.528;2023-03-20T16:34:08;12.10;1.00
42905;DHT22;28550;51.228;4.528;2023-03-20T16:36:40;12.10;1.00
42905;DHT22;28550;51.228;4.528;2023-03-20T16:39:07;12.20;1.00
42905;DHT22;28550;51.228;4.528;2023-03-20T16:41:36;12.20;1.00
42905;DHT22;28550;51.228;4.528;2023-03-20T16:44:11;12.30;1.00
42905;DHT22;28550;51.228;4.528;2023-03-20T16:46:52;12.30;1.00
42905;DHT22;28550;51.228;4.528;2023-03-20T16:51:59;12.30;1.00
42905;DHT22;28550;51.228;4.528;2023-03-20T16:54:27;12.20;1.00
42905;DHT22;28550;51.228;4.528;2023-03-20T16:56:54;12.20;1.00
42905;DHT22;28550;51.228;4.528;2023-03-20T16:59:20;12.10;1.00
42905;DHT22;28550;51.228;4.528;2023-03-20T17:01:47;12.10;1.00
42905;DHT22;28550;51.228;4.528;2023-03-20T17:06:42;12.00;1.00
42905;DHT22;28550;51.228;4.528;2023-03-20T17:11:37;12.10;1.00
42905;DHT22;28550;51.228;4.528;2023-03-20T17:14:03;12.10;1.00
42905;DHT22;28550;51.228;4.528;2023-03-20T17:16:30;12.10;1.00
42905;DHT22;28550;51.228;4.528;2023-03-20T17:19:06;12.30;1.00
42905;DHT22;28550;51.228;4.528;2023-03-20T17:21:35;12.30;1.00
42905;DHT22;28550;51.228;4.528;2023-03-20T17:24:01;12.30;1.00
42905;DHT22;28550;51.228;4.528;2023-03-20T17:26:27;12.10;1.00
42905;DHT22;28550;51.228;4.528;2023-03-20T17:28:55;12.20;1.00
42905;DHT22;28550;51.228;4.528;2023-03-20T17:31:20;12.20;1.00
42905;DHT22;28550;51.228;4.528;2023-03-20T17:33:46;12.20;1.00
42905;DHT22;28550;51.228;4.528;2023-03-20T17:38:40;12.20;1.00
42905;DHT22;28550;51.228;4.528;2023-03-20T17:41:16;12.20;1.00
42905;DHT22;28550;51.228;4.528;2023-03-20T17:43:41;12.10;1.00
42905;DHT22;28550;51.228;4.528;2023-03-20T17:46:29;12.10;1.00
42905;DHT22;28550;51.228;4.528;2023-03-20T17:48:57;12.10;1.00
42905;DHT22;28550;51.228;4.528;2023-03-20T17:51:26;12.00;1.00
42905;DHT22;28550;51.228;4.528;2023-03-20T17:53:51;12.10;1.00
42905;DHT22;28550;51.228;4.528;2023-03-20T17:56:22;12.10;1.00
42905;DHT22;28550;51.228;4.528;2023-03-20T17:58:49;12.10;1.00
42905;DHT22;28550;51.228;4.528;2023-03-20T18:01:15;12.20;1.00
42905;DHT22;28550;51.228;4.528;2023-03-20T18:03:41;12.10;1.00
42905;DHT22;28550;51.228;4.528;2023-03-20T18:06:07;12.10;1.00
42905;DHT22;28550;51.228;4.528;2023-03-20T18:08:35;12.10;1.00
42905;DHT22;28550;51.228;4.528;2023-03-20T18:11:02;12.10;1.00
42905;DHT22;28550;51.228;4.528;2023-03-20T18:13:28;12.10;1.00
42905;DHT22;28550;51.228;4.528;2023-03-20T18:15:54;12.00;1.00
42905;DHT22;28550;51.228;4.528;2023-03-20T18:18:21;12.00;1.00
42905;DHT22;28550;51.228;4.528;2023-03-20T18:20:49;12.00;1.00
42905;DHT22;28550;51.228;4.528;2023-03-20T18:23:16;12.00;1.00